sensor_id;sensor_type;location;lat;lon;timestamp;pressure;altitude;pressure_sealevel;temperature;humidity
15558;BME280;7880;50.110;9.372;2024-02-14T00:02:17;2.6217205617576838;;;2.437;100.0
15558;BME280;7880;50.110;9.372;2024-02-14T00:07:27;2.616678715922171;;;2.437;100.0
15558;BME280;7880;50.110;9.372;2024-02-14T00:12:36;2.707431985490257;;;2.5;100.0
15558;BME280;7880;50.110;9.372;2024-02-14T00:17:40;2.8385202080069574;;;2.625;100.0
15558;BME280;7880;50.110;9.372;2024-02-14T00:22:46;2.8536457848036663;;;2.625;100.0
15558;BME280;7880;50.110;9.372;2024-02-14T00:27:54;2.6923064340138807;;;2.562;100.0
15558;BME280;7880;50.110;9.372;2024-02-14T00:33:05;2.8435620666481554;;;2.687;100.0
15558;BME280;7880;50.110;9.372;2024-02-14T00:38:07;2.8435620666481554;;;2.687;100.0
15558;BME280;7880;50.110;9.372;2024-02-14T00:43:17;2.6267624078842347;;;2.5;100.0
15558;BME280;7880;50.110;9.372;2024-02-14T00:48:25;2.7931434933329;;;2.562;100.0
15558;BME280;7880;50.110;9.372;2024-02-14T00:53:28;2.546092904784018;;;2.375;100.0
15558;BME280;7880;50.110;9.372;2024-02-14T00:58:35;2.5864276470209004;;;2.5;100.0
15558;BME280;7880;50.110;9.372;2024-02-14T01:03:52;2.7124738365644587;;;2.625;100.0
15558;BME280;7880;50.110;9.372;2024-02-14T01:08:50;2.697348284214968;;;2.5;100.0
15558;BME280;7880;50.110;9.372;2024-02-14T01:13:56;2.893980669067241;;;2.687;100.0
15558;BME280;7880;50.110;9.372;2024-02-14T01:19:08;2.9292737080773805;;;2.687;100.0
15558;BME280;7880;50.110;9.372;2024-02-14T01:24:10;3.1864091370254757;;;2.937;100.0
15558;BME280;7880;50.110;9.372;2024-02-14T01:29:18;3.3729588436021003;;;3.187;100.0
15558;BME280;7880;50.110;9.372;2024-02-14T01:34:25;3.614969867473701;;;3.375;100.0
15558;BME280;7880;50.110;9.372;2024-02-14T01:39:31;3.685556542413542;;;3.562;100.0
15558;BME280;7880;50.110;9.372;2024-02-14T01:44:37;3.7359756308665966;;;3.562;100.0
15558;BME280;7880;50.110;9.372;2024-02-14T01:49:47;3.7158079919929152;;;3.5;100.0
15558;BME280;7880;50.110;9.372;2024-02-14T01:54:49;3.766227097908268;;;3.625;100.0
15558;BME280;7880;50.110;9.372;2024-02-14T01:59:56;3.4990061681950464;;;3.375;100.0
15558;BME280;7880;50.110;9.372;2024-02-14T02:05:02;3.655305103311548;;;3.5;100.0
15558;BME280;7880;50.110;9.372;2024-02-14T02:10:09;3.725891810847679;;;3.5;100.0
15558;BME280;7880;50.110;9.372;2024-02-14T02:15:15;3.635137483064318;;;3.5;100.0
15558;BME280;7880;50.110;9.372;2024-02-14T02:20:22;3.6956403577758463;;;3.5;100.0
15558;BME280;7880;50.110;9.372;2024-02-14T02:25:27;3.5998441588366403;;;3.437;100.0
15558;BME280;7880;50.110;9.372;2024-02-14T02:30:36;3.7158079919929152;;;3.5;100.0
15558;BME280;7880;50.110;9.372;2024-02-14T02:35:42;3.725891810847679;;;3.5;100.0
15558;BME280;7880;50.110;9.372;2024-02-14T02:40:46;3.816646232927451;;;3.562;100.0
15558;BME280;7880;50.110;9.372;2024-02-14T02:45:55;3.826730063423747;;;3.562;100.0
15558;BME280;7880;50.110;9.372;2024-02-14T02:51:02;3.705724174302304;;;3.5;100.0
15558;BME280;7880;50.110;9.372;2024-02-14T02:56:06;3.5746346502623054;;;3.437;100.0
15558;BME280;7880;50.110;9.372;2024-02-14T03:01:12;3.8670653970504647;;;3.562;100.0
15558;BME280;7880;50.110;9.372;2024-02-14T03:06:23;3.8821911519626155;;;3.75;100.0
15558;BME280;7880;50.110;9.372;2024-02-14T03:11:25;4.063700415217317;;;3.812;100.0
15558;BME280;7880;50.110;9.372;2024-02-14T03:15:52;3.897316909494111;;;3.75;100.0
15558;BME280;7880;50.110;9.372;2024-02-14T03:20:58;3.892274990025908;;;3.687;100.0
15558;BME280;7880;50.110;9.372;2024-02-14T03:26:07;4.0485746288730295;;;3.812;100.0
15558;BME280;7880;50.110;9.372;2024-02-14T03:31:18;4.149413253978127;;;3.875;100.0
15558;BME280;7880;50.110;9.372;2024-02-14T03:36:17;4.351090853434289;;;4.062;100.0
15558;BME280;7880;50.110;9.372;2024-02-14T03:41:25;4.769573357910849;;;4.5;100.0
15558;BME280;7880;50.110;9.372;2024-02-14T03:46:31;5.0166302355064545;;;4.75;100.0
15558;BME280;7880;50.110;9.372;2024-02-14T03:51:41;5.470409994391957;;;5.187;100.0
15558;BME280;7880;50.110;9.372;2024-02-14T03:56:44;5.500662062136689;;;5.375;100.0
15558;BME280;7880;50.110;9.372;2024-02-14T04:01:53;5.480494015809382;;;5.375;100.0
15558;BME280;7880;50.110;9.372;2024-02-14T04:07:02;5.55108219832764;;;5.5;100.0
15558;BME280;7880;50.110;9.372;2024-02-14T04:12:04;5.535956154414452;;;5.437;100.0
15558;BME280;7880;50.110;9.372;2024-02-14T04:17:11;5.601502363622421;;;5.5;100.0
15558;BME280;7880;50.110;9.372;2024-02-14T04:22:24;5.576292277337052;;;5.5;100.0
15558;BME280;7880;50.110;9.372;2024-02-14T04:27:23;5.722510879073525;;;5.562;100.0
15558;BME280;7880;50.110;9.372;2024-02-14T04:32:30;5.7477210075594485;;;5.625;100.0
15558;BME280;7880;50.110;9.372;2024-02-14T04:37:37;5.722510879073525;;;5.625;100.0
15558;BME280;7880;50.110;9.372;2024-02-14T04:42:53;5.73259492959478;;;5.625;100.0
15558;BME280;7880;50.110;9.372;2024-02-14T04:47:52;5.752763034129748;;;5.687;100.0
15558;BME280;7880;50.110;9.372;2024-02-14T04:52:57;5.828393467608839;;;5.687;100.0
15558;BME280;7880;50.110;9.372;2024-02-14T04:58:10;5.752763034129748;;;5.625;100.0
15558;BME280;7880;50.110;9.372;2024-02-14T05:03:13;5.722510879073525;;;5.625;100.0
15558;BME280;7880;50.110;9.372;2024-02-14T05:08:16;5.576292277337052;;;5.5;100.0
15558;BME280;7880;50.110;9.372;2024-02-14T05:13:27;5.510746087046573;;;5.437;100.0
15558;BME280;7880;50.110;9.372;2024-02-14T05:18:35;5.495620050118305;;;5.375;100.0
15558;BME280;7880;50.110;9.372;2024-02-14T05:23:39;5.505704074446112;;;5.312;100.0
15558;BME280;7880;50.110;9.372;2024-02-14T05:28:41;5.510746087046573;;;5.375;100.0
15558;BME280;7880;50.110;9.372;2024-02-14T05:33:49;5.55108219832764;;;5.312;100.0
15558;BME280;7880;50.110;9.372;2024-02-14T05:38:56;5.5258721265941855;;;5.312;100.0
15558;BME280;7880;50.110;9.372;2024-02-14T05:44:03;5.571250260953093;;;5.437;100.0
15558;BME280;7880;50.110;9.372;2024-02-14T05:49:10;5.601502363622421;;;5.437;100.0
15558;BME280;7880;50.110;9.372;2024-02-14T05:54:27;5.540998168761144;;;5.5;100.0
15558;BME280;7880;50.110;9.372;2024-02-14T05:59:24;5.581334294012049;;;5.437;100.0
15558;BME280;7880;50.110;9.372;2024-02-14T06:04:32;5.616628418886103;;;5.5;100.0
15558;BME280;7880;50.110;9.372;2024-02-14T06:09:36;5.667048622015864;;;5.562;100.0
15558;BME280;7880;50.110;9.372;2024-02-14T06:14:56;5.641838516813005;;;5.562;100.0
15558;BME280;7880;50.110;9.372;2024-02-14T06:19:49;5.682174688630039;;;5.562;100.0
15558;BME280;7880;50.110;9.372;2024-02-14T06:24:58;5.7830151996633505;;;5.687;100.0
15558;BME280;7880;50.110;9.372;2024-02-14T06:30:25;5.793099257169525;;;5.687;100.0
15558;BME280;7880;50.110;9.372;2024-02-14T06:35:08;5.8536036266537845;;;5.75;100.0
15558;BME280;7880;50.110;9.372;2024-02-14T06:40:14;5.904023966571549;;;5.812;100.0
15558;BME280;7880;50.110;9.372;2024-02-14T06:45:31;5.89393989625969;;;5.75;100.0
15558;BME280;7880;50.110;9.372;2024-02-14T06:50:33;5.969570451974869;;;5.812;100.0
15558;BME280;7880;50.110;9.372;2024-02-14T06:55:38;5.959486374096014;;;5.812;100.0
15558;BME280;7880;50.110;9.372;2024-02-14T07:00:44;5.904023966571549;;;5.812;100.0
15558;BME280;7880;50.110;9.372;2024-02-14T07:05:53;5.904023966571549;;;5.812;100.0
15558;BME280;7880;50.110;9.372;2024-02-14T07:10:54;5.863687692309031;;;5.75;100.0
15558;BME280;7880;50.110;9.372;2024-02-14T07:16:03;5.793099257169525;;;5.687;100.0
15558;BME280;7880;50.110;9.372;2024-02-14T07:21:11;5.722510879073525;;;5.625;100.0
15558;BME280;7880;50.110;9.372;2024-02-14T07:26:13;5.626712457183748;;;5.5;100.0
15558;BME280;7880;50.110;9.372;2024-02-14T07:31:20;5.651922558021033;;;5.562;100.0
15558;BME280;7880;50.110;9.372;2024-02-14T07:36:33;5.68721671141684;;;5.562;100.0
15558;BME280;7880;50.110;9.372;2024-02-14T07:41:36;5.67209064392955;;;5.562;100.0
15558;BME280;7880;50.110;9.372;2024-02-14T07:46:45;5.7830151996633505;;;5.625;100.0
15558;BME280;7880;50.110;9.372;2024-02-14T07:51:53;5.833435498835752;;;5.687;100.0
15558;BME280;7880;50.110;9.372;2024-02-14T07:56:59;5.914108038047561;;;5.75;100.0
15558;BME280;7880;50.110;9.372;2024-02-14T08:02:03;5.9443602594605185;;;5.812;100.0
15558;BME280;7880;50.110;9.372;2024-02-14T08:07:10;5.989738611225039;;;5.812;100.0
15558;BME280;7880;50.110;9.372;2024-02-14T08:12:15;6.019990858831443;;;5.875;100.0
15558;BME280;7880;50.110;9.372;2024-02-14T08:17:34;6.0956215236859865;;;5.937;100.0
15558;BME280;7880;50.110;9.372;2024-02-14T08:22:15;6.045201073173667;;;5.937;100.0
15558;BME280;7880;50.110;9.372;2024-02-14T08:27:11;6.045201073173667;;;5.937;100.0
15558;BME280;7880;50.110;9.372;2024-02-14T08:32:18;6.004864733718568;;;5.875;100.0
15558;BME280;7880;50.110;9.372;2024-02-14T08:37:25;6.085537431255216;;;5.937;100.0
15558;BME280;7880;50.110;9.372;2024-02-14T08:42:30;6.110747664514929;;;6.0;100.0
15558;BME280;7880;50.110;9.372;2024-02-14T08:47:37;6.156126102717826;;;6.062;100.0
15558;BME280;7880;50.110;9.372;2024-02-14T08:52:51;6.186378407949815;;;6.062;100.0
15558;BME280;7880;50.110;9.372;2024-02-14T08:58:00;6.206546617258573;;;6.062;100.0
15558;BME280;7880;50.110;9.372;2024-02-14T09:03:00;6.347724212805042;;;6.187;100.0
15558;BME280;7880;50.110;9.372;2024-02-14T09:08:04;6.438481359003345;;;6.312;100.0
15558;BME280;7880;50.110;9.372;2024-02-14T09:13:17;6.5241965281078595;;;6.375;100.0
15558;BME280;7880;50.110;9.372;2024-02-14T09:18:21;6.645206321799196;;;6.5;100.0
15558;BME280;7880;50.110;9.372;2024-02-14T09:23:25;6.675458796415478;;;6.562;100.0
15558;BME280;7880;50.110;9.372;2024-02-14T09:28:40;6.705711281509139;;;6.562;100.0
15558;BME280;7880;50.110;9.372;2024-02-14T09:33:41;6.675458796415478;;;6.562;100.0
15558;BME280;7880;50.110;9.372;2024-02-14T09:38:49;6.7510900287947155;;;6.562;100.0
15558;BME280;7880;50.110;9.372;2024-02-14T09:44:05;6.831763415510068;;;6.625;100.0
15558;BME280;7880;50.110;9.372;2024-02-14T09:49:04;6.816637149825692;;;6.625;100.0
15558;BME280;7880;50.110;9.372;2024-02-14T09:54:19;6.9023526900040455;;;6.75;100.0
15558;BME280;7880;50.110;9.372;2024-02-14T09:59:10;6.932605253678048;;;6.75;100.0
15558;BME280;7880;50.110;9.372;2024-02-14T10:04:22;6.988068314292468;;;6.812;100.0
15558;BME280;7880;50.110;9.372;2024-02-14T10:09:40;6.932605253678048;;;6.812;100.0
15558;BME280;7880;50.110;9.372;2024-02-14T10:14:31;6.9023526900040455;;;6.812;100.0
15558;BME280;7880;50.110;9.372;2024-02-14T10:19:41;6.942689443897689;;;6.812;100.0
15558;BME280;7880;50.110;9.372;2024-02-14T10:24:47;6.9628578278294295;;;6.812;100.0
15558;BME280;7880;50.110;9.372;2024-02-14T10:29:51;7.05865771509707;;;6.875;100.0
15558;BME280;7880;50.110;9.372;2024-02-14T10:35:13;7.03344720826135;;;6.875;100.0
15558;BME280;7880;50.110;9.372;2024-02-14T10:40:06;7.426731943484628;;;7.187;100.0
15558;BME280;7880;50.110;9.372;2024-02-14T10:45:14;7.194794577738503;;;7.0;100.0
15558;BME280;7880;50.110;9.372;2024-02-14T10:50:17;7.23513146667392;;;7.062;100.0
15558;BME280;7880;50.110;9.372;2024-02-14T10:55:40;7.194794577738503;;;7.062;100.0
15558;BME280;7880;50.110;9.372;2024-02-14T11:00:30;7.250257804826833;;;7.062;100.0
15558;BME280;7880;50.110;9.372;2024-02-14T11:05:47;7.315805300424108;;;7.125;100.0
15558;BME280;7880;50.110;9.372;2024-02-14T11:10:54;7.330931652546861;;;7.187;100.0
15558;BME280;7880;50.110;9.372;2024-02-14T11:16:00;7.482195317838341;;;7.25;100.0
15558;BME280;7880;50.110;9.372;2024-02-14T11:20:58;7.477153191441903;;;7.25;100.0
15558;BME280;7880;50.110;9.372;2024-02-14T11:26:04;7.532616597809829;;;7.312;100.0
15558;BME280;7880;50.110;9.372;2024-02-14T11:31:10;7.608248572336743;;;7.375;100.0
15558;BME280;7880;50.110;9.372;2024-02-14T11:36:16;7.6788384743093046;;;7.437;100.0
15558;BME280;7880;50.110;9.372;2024-02-14T11:41:27;7.59816430528299;;;7.437;100.0
15558;BME280;7880;50.110;9.372;2024-02-14T11:46:37;7.628417109936708;;;7.437;100.0
15558;BME280;7880;50.110;9.372;2024-02-14T11:51:41;7.8149763034889475;;;7.5;100.0
15558;BME280;7880;50.110;9.372;2024-02-14T11:56:48;7.809934157883982;;;7.562;100.0
15558;BME280;7880;50.110;9.372;2024-02-14T12:01:59;7.96119865263463;;;7.625;100.0
15558;BME280;7880;50.110;9.372;2024-02-14T12:06:59;8.036830998235382;;;7.75;100.0
15558;BME280;7880;50.110;9.372;2024-02-14T12:12:09;8.102379084058338;;;7.812;100.0
15558;BME280;7880;50.110;9.372;2024-02-14T12:17:13;8.051957475213566;;;7.875;100.0
15558;BME280;7880;50.110;9.372;2024-02-14T12:22:21;8.092294759961078;;;7.875;100.0
15558;BME280;7880;50.110;9.372;2024-02-14T12:27:32;8.112463409319753;;;7.937;100.0
15558;BME280;7880;50.110;9.372;2024-02-14T12:32:35;8.238517573312857;;;8.0;100.0
15558;BME280;7880;50.110;9.372;2024-02-14T12:37:40;8.273812771827215;;;8.062;100.0
15558;BME280;7880;50.110;9.372;2024-02-14T12:42:47;8.233475403260673;;;8.062;100.0
15558;BME280;7880;50.110;9.372;2024-02-14T12:47:57;8.29902363664005;;;8.062;100.0
15558;BME280;7880;50.110;9.372;2024-02-14T12:53:12;8.38474063142785;;;8.125;100.0
15558;BME280;7880;50.110;9.372;2024-02-14T12:58:29;8.394824989285553;;;8.187;100.0
15558;BME280;7880;50.110;9.372;2024-02-14T13:03:33;8.21330672596232;;;8.062;100.0
15558;BME280;7880;50.110;9.372;2024-02-14T13:08:30;8.203222389059373;;;8.0;100.0
15558;BME280;7880;50.110;9.372;2024-02-14T13:13:36;8.30406581047573;;;8.062;100.0
15558;BME280;7880;50.110;9.372;2024-02-14T13:18:42;8.208264557365329;;;8.0;100.0
15558;BME280;7880;50.110;9.372;2024-02-14T13:23:50;8.117505572387017;;;7.937;100.0
15558;BME280;7880;50.110;9.372;2024-02-14T13:28:17;8.193138053320581;;;8.0;100.0
15558;BME280;7880;50.110;9.372;2024-02-14T13:33:25;8.203222389059373;;;7.937;100.0
15558;BME280;7880;50.110;9.372;2024-02-14T13:38:31;8.157842887402513;;;7.937;100.0
15558;BME280;7880;50.110;9.372;2024-02-14T13:43:38;8.193138053320581;;;7.937;100.0
15558;BME280;7880;50.110;9.372;2024-02-14T13:48:49;8.193138053320581;;;7.937;100.0
15558;BME280;7880;50.110;9.372;2024-02-14T13:53:53;8.334318859601627;;;8.0;100.0
15558;BME280;7880;50.110;9.372;2024-02-14T13:58:59;8.26372842793935;;;8.0;100.0
15558;BME280;7880;50.110;9.372;2024-02-14T14:04:04;8.309107984602452;;;7.937;100.0
15558;BME280;7880;50.110;9.372;2024-02-14T14:09:10;8.31415015902021;;;8.0;100.0
15558;BME280;7880;50.110;9.372;2024-02-14T14:14:20;8.485584262391786;;;8.187;100.0
15558;BME280;7880;50.110;9.372;2024-02-14T14:19:24;8.334318859601627;;;8.062;100.0
15558;BME280;7880;50.110;9.372;2024-02-14T14:24:54;8.283897116879235;;;8.0;100.0
15558;BME280;7880;50.110;9.372;2024-02-14T14:29:43;8.29902363664005;;;8.0;100.0
15558;BME280;7880;50.110;9.372;2024-02-14T14:34:48;8.319192333729006;;;8.062;100.0
15558;BME280;7880;50.110;9.372;2024-02-14T14:39:57;8.339361035474576;;;8.062;100.0
15558;BME280;7880;50.110;9.372;2024-02-14T14:45:11;8.334318859601627;;;8.062;100.0
15558;BME280;7880;50.110;9.372;2024-02-14T14:50:14;8.394824989285553;;;8.125;100.0
15558;BME280;7880;50.110;9.372;2024-02-14T14:55:15;8.409951528254897;;;8.125;100.0
15558;BME280;7880;50.110;9.372;2024-02-14T15:00:23;8.334318859601627;;;8.062;100.0
15558;BME280;7880;50.110;9.372;2024-02-14T15:05:33;8.40490934830741;;;8.125;100.0
15558;BME280;7880;50.110;9.372;2024-02-14T15:10:39;8.480542078078724;;;8.125;100.0
15558;BME280;7880;50.110;9.372;2024-02-14T15:15:45;8.435162432357902;;;8.125;100.0
15558;BME280;7880;50.110;9.372;2024-02-14T15:20:48;8.460373343736865;;;8.125;100.0
15558;BME280;7880;50.110;9.372;2024-02-14T15:26:13;8.52592174737365;;;8.125;100.0
15558;BME280;7880;50.110;9.372;2024-02-14T15:37:59;8.581385819637216;;;8.187;100.0
15558;BME280;7880;50.110;9.372;2024-02-14T15:43:17;8.601554581918753;;;8.187;100.0
15558;BME280;7880;50.110;9.372;2024-02-14T15:48:30;8.606596773216733;;;8.187;100.0
15558;BME280;7880;50.110;9.372;2024-02-14T15:53:34;8.641892120451667;;;8.187;100.0
15558;BME280;7880;50.110;9.372;2024-02-14T15:58:36;8.641892120451667;;;8.187;100.0
15558;BME280;7880;50.110;9.372;2024-02-14T16:03:59;8.626765541319037;;;8.25;100.0
15558;BME280;7880;50.110;9.372;2024-02-14T16:08:47;8.606596773216733;;;8.25;100.0
15558;BME280;7880;50.110;9.372;2024-02-14T16:13:54;8.717525055404986;;;8.25;100.0
15558;BME280;7880;50.110;9.372;2024-02-14T16:19:24;8.621723348856904;;;8.25;100.0
15558;BME280;7880;50.110;9.372;2024-02-14T16:24:07;8.677187481947476;;;8.312;100.0
15558;BME280;7880;50.110;9.372;2024-02-14T16:29:20;8.727609451679745;;;8.25;100.0
15558;BME280;7880;50.110;9.372;2024-02-14T16:34:21;8.76794704842032;;;8.25;100.0
15558;BME280;7880;50.110;9.372;2024-02-14T16:39:24;8.732651650253683;;;8.187;100.0
15558;BME280;7880;50.110;9.372;2024-02-14T16:44:30;8.702398463175632;;;8.187;100.0
15558;BME280;7880;50.110;9.372;2024-02-14T16:49:37;8.717525055404986;;;8.187;100.0
15558;BME280;7880;50.110;9.372;2024-02-14T16:55:06;8.717525055404986;;;8.25;100.0
15558;BME280;7880;50.110;9.372;2024-02-14T16:59:49;8.752820447459817;;;8.25;100.0
15558;BME280;7880;50.110;9.372;2024-02-14T17:04:59;8.747778247721726;;;8.312;100.0
15558;BME280;7880;50.110;9.372;2024-02-14T17:10:10;8.73769384911866;;;8.312;100.0
15558;BME280;7880;50.110;9.372;2024-02-14T17:15:10;8.783073652000166;;;8.312;100.0
15558;BME280;7880;50.110;9.372;2024-02-14T17:20:37;8.778031450515845;;;8.312;100.0
15558;BME280;7880;50.110;9.372;2024-02-14T17:25:34;8.83349568285048;;;8.375;100.0
15558;BME280;7880;50.110;9.372;2024-02-14T17:31:01;8.848622297780821;;;8.375;100.0
15558;BME280;7880;50.110;9.372;2024-02-14T17:35:50;8.858706709189573;;;8.437;100.0
15558;BME280;7880;50.110;9.372;2024-02-14T17:40:57;8.868791121762479;;;8.437;100.0
15558;BME280;7880;50.110;9.372;2024-02-14T17:45:57;8.899044366466114;;;8.437;100.0
15558;BME280;7880;50.110;9.372;2024-02-14T17:51:43;8.858706709189573;;;8.437;100.0
15558;BME280;7880;50.110;9.372;2024-02-14T17:56:53;8.878875535499537;;;8.437;100.0
15558;BME280;7880;50.110;9.372;2024-02-14T18:01:46;8.939382042369107;;;8.437;100.0
15558;BME280;7880;50.110;9.372;2024-02-14T18:06:47;8.878875535499537;;;8.437;100.0
15558;BME280;7880;50.110;9.372;2024-02-14T18:11:55;8.899044366466114;;;8.437;100.0
15558;BME280;7880;50.110;9.372;2024-02-14T18:17:28;8.944424253166654;;;8.5;100.0
15558;BME280;7880;50.110;9.372;2024-02-14T18:22:41;9.035184097290038;;;8.562;100.0
15558;BME280;7880;50.110;9.372;2024-02-14T18:27:36;9.06543739961926;;;8.562;100.0
15558;BME280;7880;50.110;9.372;2024-02-14T18:32:42;9.095690712425858;;;8.625;100.0
15558;BME280;7880;50.110;9.372;2024-02-14T18:36:36;9.12090181443491;;;8.687;100.0
15558;BME280;7880;50.110;9.372;2024-02-14T18:41:37;9.100732932245592;;;8.687;100.0
15558;BME280;7880;50.110;9.372;2024-02-14T18:46:43;9.196535164117813;;;8.687;100.0
15558;BME280;7880;50.110;9.372;2024-02-14T18:51:55;9.25704189101234;;;8.75;100.0
15558;BME280;7880;50.110;9.372;2024-02-14T18:56:52;9.201577389758313;;;8.75;100.0
15558;BME280;7880;50.110;9.372;2024-02-14T19:02:00;9.221746295230696;;;8.687;100.0
15558;BME280;7880;50.110;9.372;2024-02-14T19:07:34;9.25199966217042;;;8.75;100.0
15558;BME280;7880;50.110;9.372;2024-02-14T19:12:55;9.25704189101234;;;8.75;100.0
15558;BME280;7880;50.110;9.372;2024-02-14T19:18:10;9.312506427482003;;;8.75;100.0
15558;BME280;7880;50.110;9.372;2024-02-14T19:23:16;9.312506427482003;;;8.812;100.0
15558;BME280;7880;50.110;9.372;2024-02-14T19:28:53;9.383097706647822;;;8.812;100.0
15558;BME280;7880;50.110;9.372;2024-02-14T19:34:11;9.403266654029721;;;8.875;100.0
15558;BME280;7880;50.110;9.372;2024-02-14T19:38:54;9.39822441674769;;;8.937;100.0
15558;BME280;7880;50.110;9.372;2024-02-14T19:44:08;9.473858006537194;;;9.0;100.0
15558;BME280;7880;50.110;9.372;2024-02-14T19:49:16;9.49402697487385;;;9.0;100.0
15558;BME280;7880;50.110;9.372;2024-02-14T19:54:30;9.529322680667974;;;9.062;100.0
15558;BME280;7880;50.110;9.372;2024-02-14T20:00:12;9.534364925517002;;;9.062;100.0
15558;BME280;7880;50.110;9.372;2024-02-14T20:05:54;9.534364925517002;;;9.062;100.0
15558;BME280;7880;50.110;9.372;2024-02-14T20:10:35;9.579745142254978;;;9.125;100.0
15558;BME280;7880;50.110;9.372;2024-02-14T20:15:44;9.594871886406327;;;9.125;100.0
15558;BME280;7880;50.110;9.372;2024-02-14T20:20:59;9.574702894786606;;;9.062;100.0
15558;BME280;7880;50.110;9.372;2024-02-14T20:26:19;9.58478739001439;;;9.125;100.0
15558;BME280;7880;50.110;9.372;2024-02-14T20:31:40;9.58478739001439;;;9.125;100.0
15558;BME280;7880;50.110;9.372;2024-02-14T20:36:25;9.72092818953097;;;9.25;100.0
15558;BME280;7880;50.110;9.372;2024-02-14T20:41:40;9.705801423551748;;;9.25;100.0
15558;BME280;7880;50.110;9.372;2024-02-14T20:47:19;9.700759168807418;;;9.25;100.0
15558;BME280;7880;50.110;9.372;2024-02-14T20:52:05;9.655378889205167;;;9.187;100.0
15558;BME280;7880;50.110;9.372;2024-02-14T20:57:36;9.756223987002159;;;9.25;100.0
15558;BME280;7880;50.110;9.372;2024-02-14T21:03:10;9.665463393746176;;;9.25;100.0
15558;BME280;7880;50.110;9.372;2024-02-14T21:08:28;9.655378889205167;;;9.25;100.0
15558;BME280;7880;50.110;9.372;2024-02-14T21:13:12;9.685632406320655;;;9.25;100.0
15558;BME280;7880;50.110;9.372;2024-02-14T21:18:57;9.715885933913523;;;9.25;100.0
15558;BME280;7880;50.110;9.372;2024-02-14T21:24:00;9.715885933913523;;;9.312;100.0
15558;BME280;7880;50.110;9.372;2024-02-14T21:29:17;9.77135076171253;;;9.25;100.0
15558;BME280;7880;50.110;9.372;2024-02-14T21:35:20;9.776393020531396;;;9.312;100.0
15558;BME280;7880;50.110;9.372;2024-02-14T21:40:29;9.741097214911132;;;9.312;100.0
15558;BME280;7880;50.110;9.372;2024-02-14T21:45:58;9.811688840412534;;;9.312;100.0
15558;BME280;7880;50.110;9.372;2024-02-14T21:50:55;9.82177336299792;;;9.312;100.0
15558;BME280;7880;50.110;9.372;2024-02-14T21:56:48;9.831857886747457;;;9.375;100.0
15558;BME280;7880;50.110;9.372;2024-02-14T22:01:58;9.796562058717246;;;9.312;100.0
15558;BME280;7880;50.110;9.372;2024-02-14T22:07:24;9.82681562472717;;;9.312;100.0
15558;BME280;7880;50.110;9.372;2024-02-14T22:13:14;9.796562058717246;;;9.312;100.0
15558;BME280;7880;50.110;9.372;2024-02-14T22:18:44;9.776393020531396;;;9.375;100.0
15558;BME280;7880;50.110;9.372;2024-02-14T22:23:38;9.791519798734225;;;9.375;100.0
15558;BME280;7880;50.110;9.372;2024-02-14T22:29:10;9.857069201214472;;;9.312;100.0
15558;BME280;7880;50.110;9.372;2024-02-14T22:34:32;9.872195993387141;;;9.312;100.0
15558;BME280;7880;50.110;9.372;2024-02-14T22:39:41;9.887322788179153;;;9.312;100.0
15558;BME280;7880;50.110;9.372;2024-02-14T22:45:17;9.796562058717246;;;9.312;100.0
15558;BME280;7880;50.110;9.372;2024-02-14T22:50:57;9.841942411661147;;;9.312;100.0
15558;BME280;7880;50.110;9.372;2024-02-14T22:56:06;9.867153729038545;;;9.312;100.0
15558;BME280;7880;50.110;9.372;2024-02-14T23:01:25;9.907491851976374;;;9.312;100.0
15558;BME280;7880;50.110;9.372;2024-02-14T23:06:42;9.867153729038545;;;9.312;100.0
15558;BME280;7880;50.110;9.372;2024-02-14T23:12:55;9.957914531842107;;;9.312;100.0
15558;BME280;7880;50.110;9.372;2024-02-14T23:18:02;9.902449585590512;;;9.312;100.0
15558;BME280;7880;50.110;9.372;2024-02-14T23:24:06;9.8923650536919;;;9.375;100.0
15558;BME280;7880;50.110;9.372;2024-02-14T23:29:26;9.867153729038545;;;9.375;100.0
15558;BME280;7880;50.110;9.372;2024-02-14T23:34:56;9.907491851976374;;;9.375;100.0
15558;BME280;7880;50.110;9.372;2024-02-14T23:40:06;9.867153729038545;;;9.375;100.0
15558;BME280;7880;50.110;9.372;2024-02-14T23:45:46;9.887322788179153;;;9.312;100.0
15558;BME280;7880;50.110;9.372;2024-02-14T23:51:00;9.867153729038545;;;9.375;100.0
15558;BME280;7880;50.110;9.372;2024-02-14T23:55:09;9.927660920430208;;;9.375;100.0
